createdAt,value
2018-03-31T00:00:43.868Z,6.75
2018-03-31T00:03:12.077Z,6.58
2018-03-31T00:05:39.932Z,6.49
2018-03-31T00:08:07.733Z,6.55
2018-03-31T00:10:35.559Z,6.66
2018-03-31T00:13:03.331Z,6.86
2018-03-31T00:15:31.125Z,6.69
2018-03-31T00:17:58.889Z,6.57
2018-03-31T00:20:26.718Z,6.64
2018-03-31T00:22:54.498Z,6.81
2018-03-31T00:25:22.292Z,6.66
2018-03-31T00:27:50.057Z,6.60
2018-03-31T00:30:17.875Z,6.52
2018-03-31T00:32:45.736Z,6.74
2018-03-31T00:35:13.535Z,6.79
2018-03-31T00:37:41.314Z,6.77
2018-03-31T00:40:09.117Z,6.86
2018-03-31T00:42:36.895Z,6.74
2018-03-31T00:45:04.768Z,6.81
2018-03-31T00:47:32.622Z,6.63
2018-03-31T00:50:00.537Z,6.60
2018-03-31T00:52:29.206Z,6.75
2018-03-31T00:54:57.049Z,6.72
2018-03-31T00:57:24.912Z,6.69
2018-03-31T00:59:52.699Z,6.54
2018-03-31T01:02:20.553Z,6.55
2018-03-31T01:04:48.403Z,6.85
2018-03-31T01:07:16.171Z,6.54
2018-03-31T01:09:43.950Z,6.58
2018-03-31T01:12:11.746Z,6.42
2018-03-31T01:14:39.526Z,6.67
2018-03-31T01:17:07.326Z,6.70
2018-03-31T01:19:35.094Z,6.63
2018-03-31T01:22:02.948Z,6.47
2018-03-31T01:24:30.718Z,6.39
2018-03-31T01:26:58.560Z,6.40
2018-03-31T01:29:26.323Z,6.18
2018-03-31T01:31:54.163Z,6.32
2018-03-31T01:34:21.991Z,6.45
2018-03-31T01:36:49.858Z,6.25
2018-03-31T01:39:17.626Z,6.11
2018-03-31T01:41:45.485Z,6.16
2018-03-31T01:44:13.306Z,6.10
2018-03-31T01:46:41.112Z,5.95
2018-03-31T01:49:08.887Z,6.14
2018-03-31T01:51:36.701Z,6.33
2018-03-31T01:54:04.463Z,5.93
2018-03-31T01:56:32.259Z,5.94
2018-03-31T01:59:00.039Z,5.82
2018-03-31T02:01:27.891Z,5.95
2018-03-31T02:03:55.780Z,5.86
2018-03-31T02:06:23.568Z,6.11
2018-03-31T02:08:51.405Z,5.83
2018-03-31T02:11:19.260Z,5.95
2018-03-31T02:13:47.031Z,5.86
2018-03-31T02:16:14.815Z,5.70
2018-03-31T02:18:42.603Z,5.83
2018-03-31T02:21:10.427Z,5.93
2018-03-31T02:23:38.299Z,5.96
2018-03-31T02:26:06.065Z,5.73
2018-03-31T02:28:33.864Z,5.81
2018-03-31T02:31:01.627Z,5.85
2018-03-31T02:33:29.454Z,6.07
2018-03-31T02:35:57.327Z,5.92
2018-03-31T02:38:25.181Z,6.14
2018-03-31T02:40:53.044Z,5.70
2018-03-31T02:43:20.835Z,5.73
2018-03-31T02:45:48.624Z,5.93
2018-03-31T02:48:16.407Z,5.89
2018-03-31T02:50:44.175Z,6.10
2018-03-31T02:53:11.980Z,5.88
2018-03-31T02:55:39.751Z,5.97
2018-03-31T02:58:07.610Z,5.82
2018-03-31T03:00:35.441Z,5.87
2018-03-31T03:03:03.323Z,5.73
2018-03-31T03:05:31.098Z,5.56
2018-03-31T03:07:58.891Z,5.71
2018-03-31T03:10:26.719Z,5.97
2018-03-31T03:12:54.523Z,5.89
2018-03-31T03:15:22.350Z,6.03
2018-03-31T03:17:50.122Z,5.86
2018-03-31T03:20:17.924Z,5.77
2018-03-31T03:22:45.704Z,6.01
2018-03-31T03:25:13.496Z,6.02
2018-03-31T03:27:41.263Z,6.12
2018-03-31T03:30:09.172Z,5.93
2018-03-31T03:32:36.931Z,5.61
2018-03-31T03:35:04.727Z,5.95
2018-03-31T03:37:32.554Z,5.84
2018-03-31T03:40:00.410Z,5.66
2018-03-31T03:42:28.174Z,5.80
2018-03-31T03:44:55.958Z,5.99
2018-03-31T03:47:23.740Z,6.04
2018-03-31T03:49:51.527Z,6.06
2018-03-31T03:52:19.317Z,5.64
2018-03-31T03:54:47.202Z,5.79
2018-03-31T03:57:15.066Z,5.63
2018-03-31T03:59:42.930Z,5.45
2018-03-31T04:02:10.819Z,5.70
2018-03-31T04:04:38.654Z,5.61
2018-03-31T04:07:06.421Z,5.48
2018-03-31T04:09:34.232Z,5.72
2018-03-31T04:12:02.010Z,5.84
2018-03-31T04:14:29.806Z,5.74
2018-03-31T04:16:57.608Z,5.63
2018-03-31T04:19:25.407Z,5.50
2018-03-31T04:21:53.215Z,5.52
2018-03-31T04:24:21.076Z,5.36
2018-03-31T04:26:48.883Z,5.27
2018-03-31T04:29:16.717Z,5.39
2018-03-31T04:31:44.545Z,5.41
2018-03-31T04:34:12.314Z,5.34
2018-03-31T04:36:40.105Z,5.22
2018-03-31T04:39:07.987Z,5.23
2018-03-31T04:41:35.863Z,5.02
2018-03-31T04:44:03.618Z,5.22
2018-03-31T04:46:31.407Z,5.06
2018-03-31T04:48:59.182Z,5.23
2018-03-31T04:51:26.970Z,5.09
2018-03-31T04:53:54.756Z,5.16
2018-03-31T04:56:22.632Z,5.06
2018-03-31T04:58:50.463Z,5.04
2018-03-31T05:01:18.272Z,5.02
2018-03-31T05:03:46.034Z,5.13
2018-03-31T05:06:13.827Z,5.22
2018-03-31T05:08:41.595Z,5.25
2018-03-31T05:11:09.406Z,5.19
2018-03-31T05:13:37.205Z,5.23
2018-03-31T05:16:05.012Z,5.08
2018-03-31T05:18:32.804Z,5.12
2018-03-31T05:21:00.573Z,4.95
2018-03-31T05:23:28.369Z,4.90
2018-03-31T05:25:56.135Z,4.90
2018-03-31T05:28:23.915Z,4.71
2018-03-31T05:30:51.742Z,4.69
2018-03-31T05:33:19.557Z,4.66
2018-03-31T05:35:47.359Z,4.51
2018-03-31T05:38:15.232Z,4.40
2018-03-31T05:40:42.992Z,4.60
2018-03-31T05:43:10.774Z,4.76
2018-03-31T05:45:38.558Z,4.63
2018-03-31T05:48:06.341Z,4.59
2018-03-31T05:50:34.132Z,4.53
2018-03-31T05:53:02.022Z,4.62
2018-03-31T05:55:29.885Z,4.73
2018-03-31T05:57:57.751Z,4.72
2018-03-31T06:00:25.590Z,4.68
2018-03-31T06:02:53.420Z,4.66
2018-03-31T06:05:21.179Z,4.34
2018-03-31T06:07:48.969Z,4.36
2018-03-31T06:10:16.782Z,4.48
2018-03-31T06:12:44.649Z,4.58
2018-03-31T06:15:12.511Z,4.36
2018-03-31T06:17:40.505Z,4.37
2018-03-31T06:20:08.259Z,4.70
2018-03-31T06:22:36.055Z,4.40
2018-03-31T06:25:03.867Z,4.42
2018-03-31T06:27:31.640Z,4.46
2018-03-31T06:29:59.506Z,4.61
2018-03-31T06:32:27.313Z,4.60
2018-03-31T06:34:55.106Z,4.42
2018-03-31T06:37:22.910Z,4.42
2018-03-31T06:39:50.691Z,4.29
2018-03-31T06:42:18.530Z,4.50
2018-03-31T06:44:46.339Z,4.57
2018-03-31T06:47:14.106Z,4.55
2018-03-31T06:49:41.902Z,4.71
2018-03-31T06:52:09.715Z,4.69
2018-03-31T06:54:37.507Z,4.81
2018-03-31T06:57:05.270Z,4.39
2018-03-31T06:59:33.074Z,4.51
2018-03-31T07:02:00.931Z,4.38
2018-03-31T07:04:28.723Z,4.61
2018-03-31T07:06:56.486Z,4.83
2018-03-31T07:09:24.299Z,4.74
2018-03-31T07:11:53.145Z,4.93
2018-03-31T07:14:20.942Z,4.54
2018-03-31T07:16:48.707Z,4.78
2018-03-31T07:19:16.515Z,4.70
2018-03-31T07:21:44.392Z,4.84
2018-03-31T07:24:12.170Z,4.90
2018-03-31T07:26:39.970Z,4.83
2018-03-31T07:29:07.799Z,4.78
2018-03-31T07:31:35.662Z,4.81
2018-03-31T07:34:03.481Z,4.97
2018-03-31T07:36:31.385Z,4.93
2018-03-31T07:38:59.146Z,4.79
2018-03-31T07:41:27.016Z,4.73
2018-03-31T07:43:54.777Z,4.84
2018-03-31T07:46:22.580Z,5.10
2018-03-31T07:48:50.375Z,5.34
2018-03-31T07:51:18.179Z,5.36
2018-03-31T07:53:46.039Z,5.23
2018-03-31T07:56:13.871Z,5.23
2018-03-31T07:58:41.646Z,5.42
2018-03-31T08:01:09.454Z,5.53
2018-03-31T08:03:37.230Z,5.59
2018-03-31T08:06:05.062Z,5.97
2018-03-31T08:08:32.831Z,5.56
2018-03-31T08:11:00.634Z,5.85
2018-03-31T08:13:28.399Z,5.73
2018-03-31T08:15:56.210Z,5.51
2018-03-31T08:18:23.979Z,6.08
2018-03-31T08:20:51.749Z,6.12
2018-03-31T08:23:19.678Z,6.00
2018-03-31T08:25:47.462Z,6.66
2018-03-31T08:28:15.240Z,6.01
2018-03-31T08:30:43.010Z,6.45
2018-03-31T08:33:10.813Z,7.00
2018-03-31T08:35:38.634Z,7.13
2018-03-31T08:38:06.453Z,6.92
2018-03-31T08:40:34.218Z,7.27
2018-03-31T08:43:02.129Z,6.83
2018-03-31T08:45:29.890Z,6.41
2018-03-31T08:47:57.699Z,6.55
2018-03-31T08:50:25.477Z,6.49
2018-03-31T08:52:53.280Z,6.84
2018-03-31T08:55:21.054Z,6.56
2018-03-31T08:57:48.876Z,6.58
2018-03-31T09:00:16.699Z,6.78
2018-03-31T09:02:44.555Z,7.02
2018-03-31T09:05:12.327Z,6.87
2018-03-31T09:07:40.174Z,6.59
2018-03-31T09:10:07.955Z,6.50
2018-03-31T09:12:35.814Z,6.31
2018-03-31T09:15:03.691Z,6.54
2018-03-31T09:17:31.488Z,6.45
2018-03-31T09:19:59.320Z,6.54
2018-03-31T09:22:27.133Z,6.86
2018-03-31T09:24:54.915Z,6.85
2018-03-31T09:27:22.701Z,7.02
2018-03-31T09:29:50.495Z,7.25
2018-03-31T09:32:18.263Z,7.18
2018-03-31T09:34:46.098Z,7.18
2018-03-31T09:37:13.861Z,7.34
2018-03-31T09:39:41.650Z,6.96
2018-03-31T09:42:09.434Z,7.32
2018-03-31T09:44:37.223Z,6.92
2018-03-31T09:47:05.011Z,7.43
2018-03-31T09:49:32.799Z,7.52
2018-03-31T09:52:00.587Z,7.08
2018-03-31T09:54:28.404Z,7.29
2018-03-31T09:56:56.274Z,7.09
2018-03-31T09:59:24.086Z,6.82
2018-03-31T10:01:51.854Z,6.94
2018-03-31T10:04:19.652Z,6.89
2018-03-31T10:06:47.423Z,6.64
2018-03-31T10:09:15.215Z,6.55
2018-03-31T10:11:42.991Z,6.99
2018-03-31T10:14:10.819Z,7.06
2018-03-31T10:16:38.595Z,7.01
2018-03-31T10:19:06.391Z,7.08
2018-03-31T10:21:34.222Z,7.21
2018-03-31T10:24:02.030Z,7.40
2018-03-31T10:26:29.854Z,7.48
2018-03-31T10:28:57.709Z,7.59
2018-03-31T10:31:25.579Z,7.45
2018-03-31T10:33:53.459Z,7.81
2018-03-31T10:36:21.333Z,7.90
2018-03-31T10:38:49.189Z,7.60
2018-03-31T10:41:16.987Z,7.40
2018-03-31T10:43:44.811Z,7.36
2018-03-31T10:46:12.615Z,7.31
2018-03-31T10:48:40.369Z,7.55
2018-03-31T10:51:08.167Z,7.98
2018-03-31T10:53:35.932Z,8.51
2018-03-31T10:56:03.742Z,8.81
2018-03-31T10:58:31.519Z,8.88
2018-03-31T11:00:59.301Z,8.33
2018-03-31T11:03:27.233Z,8.45
2018-03-31T11:05:55.015Z,8.51
2018-03-31T11:08:22.786Z,8.71
2018-03-31T11:10:50.586Z,8.32
2018-03-31T11:13:19.427Z,9.09
2018-03-31T11:15:47.306Z,9.15
2018-03-31T11:18:15.085Z,9.16
2018-03-31T11:20:42.885Z,9.70
2018-03-31T11:23:10.736Z,9.50
2018-03-31T11:25:38.510Z,9.67
2018-03-31T11:28:06.291Z,9.85
2018-03-31T11:30:34.051Z,9.50
2018-03-31T11:33:01.957Z,9.87
2018-03-31T11:35:29.750Z,10.49
2018-03-31T11:37:57.546Z,10.58
2018-03-31T11:40:25.371Z,10.22
2018-03-31T11:42:53.220Z,10.10
2018-03-31T11:45:20.996Z,9.71
2018-03-31T11:47:48.835Z,9.60
2018-03-31T11:50:16.608Z,9.46
2018-03-31T11:52:44.409Z,9.54
2018-03-31T11:55:12.234Z,9.37
2018-03-31T11:57:40.102Z,9.57
2018-03-31T12:00:07.892Z,9.89
2018-03-31T12:02:35.787Z,9.70
2018-03-31T12:05:03.546Z,9.31
2018-03-31T12:07:31.362Z,9.48
2018-03-31T12:09:59.215Z,9.41
2018-03-31T12:12:27.009Z,8.93
2018-03-31T12:14:54.784Z,8.96
2018-03-31T12:17:22.583Z,9.48
2018-03-31T12:19:50.349Z,9.95
2018-03-31T12:22:18.155Z,10.52
2018-03-31T12:24:45.929Z,11.15
2018-03-31T12:27:13.758Z,11.53
2018-03-31T12:29:41.523Z,11.65
2018-03-31T12:32:09.396Z,11.74
2018-03-31T12:34:37.215Z,11.53
2018-03-31T12:37:04.996Z,11.09
2018-03-31T12:39:32.811Z,10.81
2018-03-31T12:42:00.599Z,10.03
2018-03-31T12:44:28.415Z,9.75
2018-03-31T12:46:56.182Z,9.56
2018-03-31T12:49:23.978Z,9.22
2018-03-31T12:51:51.758Z,9.26
2018-03-31T12:54:19.580Z,9.18
2018-03-31T12:56:47.444Z,9.07
2018-03-31T12:59:15.457Z,9.31
2018-03-31T13:01:43.232Z,9.31
2018-03-31T13:04:11.027Z,9.68
2018-03-31T13:06:38.799Z,9.92
2018-03-31T13:09:06.671Z,9.90
2018-03-31T13:11:34.607Z,9.54
2018-03-31T13:14:02.400Z,9.86
2018-03-31T13:16:30.277Z,9.87
2018-03-31T13:18:58.079Z,9.98
2018-03-31T13:21:25.853Z,10.04
2018-03-31T13:23:53.655Z,9.90
2018-03-31T13:26:21.419Z,9.94
2018-03-31T13:28:49.298Z,10.01
2018-03-31T13:31:17.075Z,9.99
2018-03-31T13:33:44.864Z,9.90
2018-03-31T13:36:12.683Z,10.02
2018-03-31T13:38:40.599Z,10.30
2018-03-31T13:41:08.454Z,10.21
2018-03-31T13:43:36.230Z,10.40
2018-03-31T13:46:04.071Z,10.23
2018-03-31T13:48:31.840Z,10.32
2018-03-31T13:50:59.667Z,10.31
2018-03-31T13:53:27.463Z,10.11
2018-03-31T13:55:55.263Z,9.54
2018-03-31T13:58:23.026Z,9.41
2018-03-31T14:00:50.818Z,9.47
2018-03-31T14:03:18.586Z,9.60
2018-03-31T14:05:46.384Z,9.49
2018-03-31T14:08:14.177Z,9.53
2018-03-31T14:10:41.967Z,9.35
2018-03-31T14:13:09.771Z,9.47
2018-03-31T14:15:37.748Z,9.43
2018-03-31T14:18:05.485Z,9.41
2018-03-31T14:20:33.362Z,9.83
2018-03-31T14:23:01.137Z,10.03
2018-03-31T14:25:28.962Z,10.10
2018-03-31T14:27:56.730Z,10.47
2018-03-31T14:30:24.550Z,10.59
2018-03-31T14:32:52.392Z,10.83
2018-03-31T14:35:20.182Z,11.12
2018-03-31T14:37:47.975Z,11.29
2018-03-31T14:40:15.751Z,11.28
2018-03-31T14:42:43.642Z,11.11
2018-03-31T14:45:11.510Z,11.01
2018-03-31T14:47:39.383Z,10.57
2018-03-31T14:50:07.166Z,10.63
2018-03-31T14:52:35.006Z,10.38
2018-03-31T14:55:02.802Z,10.33
2018-03-31T14:57:30.647Z,10.07
2018-03-31T14:59:58.430Z,10.07
2018-03-31T15:02:26.271Z,10.00
2018-03-31T15:04:54.031Z,9.77
2018-03-31T15:07:21.915Z,9.78
2018-03-31T15:09:49.687Z,9.37
2018-03-31T15:12:17.466Z,9.61
2018-03-31T15:14:45.246Z,9.54
2018-03-31T15:17:13.108Z,9.52
2018-03-31T15:19:41.811Z,9.53
2018-03-31T15:22:09.605Z,9.47
2018-03-31T15:24:37.413Z,9.29
2018-03-31T15:27:05.198Z,9.43
2018-03-31T15:29:33.031Z,9.39
2018-03-31T15:32:00.883Z,9.53
2018-03-31T15:34:28.664Z,9.44
2018-03-31T15:36:56.440Z,9.47
2018-03-31T15:39:24.266Z,9.51
2018-03-31T15:41:52.055Z,9.37
2018-03-31T15:44:19.905Z,9.40
2018-03-31T15:46:47.765Z,9.31
2018-03-31T15:49:15.640Z,9.22
2018-03-31T15:51:43.402Z,9.29
2018-03-31T15:54:11.181Z,9.33
2018-03-31T15:56:39.015Z,9.39
2018-03-31T15:59:06.874Z,9.46
2018-03-31T16:01:34.696Z,9.35
2018-03-31T16:04:02.486Z,9.37
2018-03-31T16:06:30.282Z,9.37
2018-03-31T16:08:58.083Z,9.37
2018-03-31T16:11:25.913Z,9.24
2018-03-31T16:13:53.700Z,9.20
2018-03-31T16:16:21.587Z,9.11
2018-03-31T16:18:49.511Z,9.09
2018-03-31T16:21:17.283Z,8.92
2018-03-31T16:23:45.086Z,9.01
2018-03-31T16:26:13.018Z,8.96
2018-03-31T16:28:40.802Z,8.95
2018-03-31T16:31:08.575Z,8.87
2018-03-31T16:33:36.405Z,8.86
2018-03-31T16:36:04.283Z,8.81
2018-03-31T16:38:32.139Z,8.72
2018-03-31T16:40:59.939Z,8.69
2018-03-31T16:43:27.705Z,8.66
2018-03-31T16:45:55.499Z,8.63
2018-03-31T16:48:23.279Z,8.64
2018-03-31T16:50:51.066Z,8.53
2018-03-31T16:53:18.840Z,8.56
2018-03-31T16:55:46.674Z,8.60
2018-03-31T16:58:14.435Z,8.56
2018-03-31T17:00:42.324Z,8.56
2018-03-31T17:03:10.194Z,8.45
2018-03-31T17:05:38.062Z,8.50
2018-03-31T17:08:05.918Z,8.25
2018-03-31T17:10:33.735Z,8.41
2018-03-31T17:13:01.564Z,8.39
2018-03-31T17:15:29.346Z,8.35
2018-03-31T17:17:57.120Z,8.38
2018-03-31T17:20:24.961Z,8.39
2018-03-31T17:22:52.876Z,8.38
2018-03-31T17:25:20.725Z,8.20
2018-03-31T17:27:48.554Z,8.32
2018-03-31T17:30:16.373Z,8.27
2018-03-31T17:32:44.123Z,8.25
2018-03-31T17:35:11.948Z,8.26
2018-03-31T17:37:39.745Z,8.32
2018-03-31T17:40:07.526Z,8.29
2018-03-31T17:42:35.318Z,8.31
2018-03-31T17:45:03.102Z,8.30
2018-03-31T17:47:30.985Z,8.33
2018-03-31T17:49:58.846Z,8.25
2018-03-31T17:52:26.635Z,8.28
2018-03-31T17:54:54.418Z,8.20
2018-03-31T17:57:22.211Z,8.02
2018-03-31T17:59:49.987Z,8.06
2018-03-31T18:02:17.778Z,8.03
2018-03-31T18:04:45.618Z,7.98
2018-03-31T18:07:13.429Z,8.01
2018-03-31T18:09:41.200Z,7.98
2018-03-31T18:12:09.011Z,7.99
2018-03-31T18:14:36.787Z,7.99
2018-03-31T18:17:04.639Z,8.02
2018-03-31T18:19:32.402Z,7.82
2018-03-31T18:22:00.207Z,7.89
2018-03-31T18:24:27.986Z,7.79
2018-03-31T18:26:55.782Z,7.81
2018-03-31T18:29:23.560Z,7.76
2018-03-31T18:31:51.355Z,7.76
2018-03-31T18:34:19.195Z,7.72
2018-03-31T18:36:47.085Z,7.57
2018-03-31T18:39:14.850Z,7.69
2018-03-31T18:41:42.743Z,7.61
2018-03-31T18:44:10.558Z,7.59
2018-03-31T18:46:38.418Z,7.58
2018-03-31T18:49:06.282Z,7.54
2018-03-31T18:51:34.126Z,7.55
2018-03-31T18:54:01.917Z,7.57
2018-03-31T18:56:29.696Z,7.55
2018-03-31T18:58:57.507Z,7.51
2018-03-31T19:01:25.315Z,7.60
2018-03-31T19:03:53.175Z,7.45
2018-03-31T19:06:20.954Z,7.51
2018-03-31T19:08:48.775Z,7.50
2018-03-31T19:11:16.648Z,7.58
2018-03-31T19:13:44.480Z,7.49
2018-03-31T19:16:12.254Z,7.46
2018-03-31T19:18:40.131Z,7.45
2018-03-31T19:21:07.943Z,7.61
2018-03-31T19:23:35.824Z,7.60
2018-03-31T19:26:03.678Z,7.61
2018-03-31T19:28:31.555Z,7.60
2018-03-31T19:30:59.339Z,7.51
2018-03-31T19:33:27.143Z,7.56
2018-03-31T19:36:00.552Z,7.59
2018-03-31T19:38:28.452Z,7.52
2018-03-31T19:40:56.238Z,7.56
2018-03-31T19:43:24.698Z,7.52
2018-03-31T19:45:51.862Z,7.52
2018-03-31T19:48:19.650Z,7.52
2018-03-31T19:50:47.466Z,7.58
2018-03-31T19:53:15.246Z,7.53
2018-03-31T19:55:43.049Z,7.50
2018-03-31T19:58:10.866Z,7.46
2018-03-31T20:00:38.659Z,7.48
2018-03-31T20:03:06.445Z,7.52
2018-03-31T20:05:34.350Z,7.45
2018-03-31T20:08:02.225Z,7.34
2018-03-31T20:10:30.082Z,7.30
2018-03-31T20:12:57.954Z,7.34
2018-03-31T20:15:25.792Z,7.27
2018-03-31T20:17:53.558Z,7.23
2018-03-31T20:20:21.364Z,7.10
2018-03-31T20:22:49.215Z,7.18
2018-03-31T20:25:17.111Z,7.31
2018-03-31T20:27:44.847Z,7.40
2018-03-31T20:30:12.701Z,7.33
2018-03-31T20:32:40.547Z,7.31
2018-03-31T20:35:08.360Z,7.32
2018-03-31T20:37:36.132Z,7.15
2018-03-31T20:40:03.971Z,7.33
2018-03-31T20:42:31.760Z,7.31
2018-03-31T20:44:59.588Z,7.19
2018-03-31T20:47:27.384Z,7.22
2018-03-31T20:49:55.159Z,7.16
2018-03-31T20:52:22.982Z,7.05
2018-03-31T20:54:50.854Z,7.00
2018-03-31T20:57:19.612Z,7.01
2018-03-31T20:59:47.386Z,7.13
2018-03-31T21:02:15.273Z,7.15
2018-03-31T21:04:43.056Z,7.21
2018-03-31T21:07:10.864Z,7.10
2018-03-31T21:09:38.667Z,7.04
2018-03-31T21:12:06.531Z,7.00
2018-03-31T21:14:34.379Z,6.98
2018-03-31T21:17:02.267Z,7.05
2018-03-31T21:19:30.055Z,7.06
2018-03-31T21:21:57.861Z,6.93
2018-03-31T21:24:25.646Z,7.01
2018-03-31T21:26:53.522Z,6.99
2018-03-31T21:29:21.388Z,7.07
2018-03-31T21:31:49.274Z,6.92
2018-03-31T21:34:17.132Z,6.92
2018-03-31T21:36:44.997Z,6.80
2018-03-31T21:39:12.869Z,6.87
2018-03-31T21:41:40.699Z,6.87
2018-03-31T21:44:08.471Z,6.79
2018-03-31T21:46:36.303Z,6.75
2018-03-31T21:49:04.085Z,6.72
2018-03-31T21:51:31.874Z,6.80
2018-03-31T21:53:59.681Z,6.59
2018-03-31T21:56:27.510Z,6.60
2018-03-31T21:58:55.387Z,6.60
2018-03-31T22:01:23.180Z,6.53
2018-03-31T22:03:51.007Z,6.59
2018-03-31T22:06:18.793Z,6.52
2018-03-31T22:08:46.645Z,6.51
2018-03-31T22:11:14.499Z,6.56
2018-03-31T22:13:47.801Z,6.37
2018-03-31T22:16:15.575Z,6.41
2018-03-31T22:18:43.379Z,6.32
2018-03-31T22:21:11.200Z,6.30
2018-03-31T22:23:39.008Z,6.15
2018-03-31T22:26:06.788Z,6.22
2018-03-31T22:28:34.677Z,6.24
2018-03-31T22:31:02.468Z,6.19
2018-03-31T22:33:30.264Z,6.12
2018-03-31T22:35:58.051Z,6.03
2018-03-31T22:38:25.855Z,6.07
2018-03-31T22:40:53.722Z,5.98
2018-03-31T22:43:21.582Z,6.11
2018-03-31T22:45:49.364Z,5.85
2018-03-31T22:48:17.166Z,5.89
2018-03-31T22:50:44.946Z,6.01
2018-03-31T22:53:12.756Z,6.11
2018-03-31T22:55:40.604Z,6.02
2018-03-31T22:58:08.439Z,5.86
2018-03-31T23:00:36.227Z,5.93
2018-03-31T23:03:03.999Z,5.83
2018-03-31T23:05:31.916Z,5.87
2018-03-31T23:07:59.590Z,5.80
2018-03-31T23:10:27.386Z,5.86
2018-03-31T23:12:55.266Z,5.74
2018-03-31T23:15:23.126Z,5.74
2018-03-31T23:17:51.091Z,5.65
2018-03-31T23:20:18.921Z,5.61
2018-03-31T23:22:46.733Z,5.67
2018-03-31T23:25:14.547Z,5.60
2018-03-31T23:27:42.365Z,5.66
2018-03-31T23:30:10.224Z,5.52
2018-03-31T23:32:38.046Z,5.56
2018-03-31T23:35:05.996Z,5.56
2018-03-31T23:37:33.828Z,5.53
2018-03-31T23:40:01.638Z,5.46
2018-03-31T23:42:29.433Z,5.41
2018-03-31T23:44:57.253Z,5.47
2018-03-31T23:47:25.035Z,5.32
2018-03-31T23:49:52.818Z,5.41
2018-03-31T23:52:20.626Z,5.33
2018-03-31T23:54:48.480Z,5.29
2018-03-31T23:57:16.293Z,5.33
2018-03-31T23:59:44.058Z,5.23
